Time;durP1;ratioP1;P1;durP2;ratioP2;P2;SDS_P1;SDS_P2;PMS_P1;PMS_P2;Temp;Humidity;BMP_temperature;BMP_pressure;BME280_temperature;BME280_humidity;BME280_pressure;Samples;Min_cycle;Max_cycle;Signal;HPM_P1;HPM_P2
2021/01/20 00:02:03;;;;;;;1.60;1.20;;;6.10;98.20;;;;;;5108129;28;20461;-76
2021/01/20 00:04:29;;;;;;;1.67;1.40;;;6.10;98.20;;;;;;5110379;28;20464;-76
2021/01/20 00:06:55;;;;;;;1.60;1.23;;;6.00;98.20;;;;;;5112948;28;20432;-76
2021/01/20 00:09:23;;;;;;;1.70;1.53;;;5.90;98.20;;;;;;5109459;28;20487;-76
2021/01/20 00:11:49;;;;;;;1.70;1.40;;;5.90;98.20;;;;;;5102871;28;20472;-76
2021/01/20 00:14:16;;;;;;;1.60;1.30;;;5.80;98.20;;;;;;5108281;28;20452;-76
2021/01/20 00:16:43;;;;;;;1.60;1.30;;;5.80;98.20;;;;;;5110901;28;20549;-76
2021/01/20 00:19:10;;;;;;;1.70;1.40;;;5.80;98.20;;;;;;5109377;28;20488;-76
2021/01/20 00:21:37;;;;;;;1.70;1.40;;;5.70;98.20;;;;;;5112259;28;20452;-76
2021/01/20 00:24:03;;;;;;;1.70;1.40;;;5.70;98.20;;;;;;5110274;28;20464;-76
2021/01/20 00:26:31;;;;;;;1.60;1.30;;;5.70;98.20;;;;;;5112298;28;20455;-76
2021/01/20 00:28:57;;;;;;;1.67;1.33;;;5.60;98.20;;;;;;5107338;28;20492;-75
2021/01/20 00:31:24;;;;;;;1.60;1.20;;;5.60;98.20;;;;;;5111867;28;20441;-76
2021/01/20 00:33:50;;;;;;;1.67;1.40;;;5.60;98.20;;;;;;5110039;28;20451;-76
2021/01/20 00:36:17;;;;;;;1.70;1.50;;;5.60;98.20;;;;;;5109177;28;20464;-76
2021/01/20 00:38:43;;;;;;;1.80;1.60;;;5.60;98.20;;;;;;5105296;28;20718;-76
2021/01/20 00:41:09;;;;;;;1.70;1.40;;;5.60;98.20;;;;;;5108135;28;20460;-76
2021/01/20 00:43:37;;;;;;;1.70;1.50;;;5.60;98.20;;;;;;5097146;28;20931;-76
2021/01/20 00:46:03;;;;;;;1.67;1.40;;;5.60;98.20;;;;;;5096716;28;20467;-76
2021/01/20 00:48:29;;;;;;;1.60;1.30;;;5.60;98.20;;;;;;5113175;28;20451;-76
2021/01/20 00:50:57;;;;;;;1.67;1.30;;;5.60;98.20;;;;;;5105888;28;20452;-76
2021/01/20 00:53:23;;;;;;;1.67;1.30;;;5.50;98.20;;;;;;5107054;28;20460;-76
2021/01/20 00:55:50;;;;;;;1.70;1.37;;;5.50;98.20;;;;;;5108363;28;20922;-76
2021/01/20 00:58:17;;;;;;;1.60;1.30;;;5.50;98.20;;;;;;5110930;28;20472;-76
2021/01/20 01:00:44;;;;;;;1.63;1.30;;;5.50;98.20;;;;;;5106994;28;20476;-76
2021/01/20 01:03:11;;;;;;;1.60;1.30;;;5.50;98.20;;;;;;5110029;28;20449;-76
2021/01/20 01:05:37;;;;;;;1.60;1.30;;;5.50;98.20;;;;;;5111652;28;20437;-76
2021/01/20 01:08:04;;;;;;;1.63;1.30;;;5.50;98.20;;;;;;5111569;28;20436;-76
2021/01/20 01:10:30;;;;;;;1.60;1.33;;;5.50;98.20;;;;;;5103568;28;20491;-76
2021/01/20 01:12:57;;;;;;;1.63;1.40;;;5.50;98.20;;;;;;5109348;28;20459;-76
2021/01/20 01:15:25;;;;;;;1.60;1.30;;;5.60;98.20;;;;;;5111766;28;20591;-75
2021/01/20 01:17:52;;;;;;;1.63;1.30;;;5.60;98.20;;;;;;5107054;28;20594;-75
2021/01/20 01:20:19;;;;;;;1.60;1.30;;;5.60;98.20;;;;;;5105336;28;20496;-76
2021/01/20 01:22:45;;;;;;;1.70;1.40;;;5.60;98.20;;;;;;5108525;28;20457;-76
2021/01/20 01:25:12;;;;;;;1.70;1.40;;;5.70;98.20;;;;;;5111646;28;20537;-76
2021/01/20 01:27:38;;;;;;;1.63;1.33;;;5.70;98.20;;;;;;5109770;28;20468;-76
2021/01/20 01:30:06;;;;;;;1.67;1.30;;;5.70;98.20;;;;;;5113824;28;20460;-76
2021/01/20 01:32:33;;;;;;;1.60;1.30;;;5.70;98.20;;;;;;5111019;28;20838;-76
2021/01/20 01:35:00;;;;;;;1.60;1.30;;;5.80;98.20;;;;;;5112716;28;20460;-76
2021/01/20 01:37:26;;;;;;;1.63;1.30;;;5.80;98.20;;;;;;5113580;28;20468;-76
2021/01/20 01:39:53;;;;;;;1.63;1.30;;;5.80;98.20;;;;;;5113223;28;20494;-76
2021/01/20 01:42:26;;;;;;;1.70;1.50;;;5.90;98.20;;;;;;5108291;28;21043;-76
2021/01/20 01:44:53;;;;;;;1.70;1.27;;;5.90;98.20;;;;;;5113361;28;20468;-76
2021/01/20 01:47:20;;;;;;;1.67;1.50;;;5.90;98.20;;;;;;5114044;28;20448;-76
2021/01/20 01:49:46;;;;;;;1.63;1.33;;;5.90;98.20;;;;;;5117749;28;20476;-76
2021/01/20 01:52:14;;;;;;;1.70;1.30;;;5.90;98.20;;;;;;5114422;28;20461;-76
2021/01/20 01:54:41;;;;;;;1.70;1.53;;;5.90;98.20;;;;;;5110008;28;20449;-76
2021/01/20 01:57:08;;;;;;;1.63;1.30;;;5.90;98.20;;;;;;5113304;28;20832;-76
2021/01/20 01:59:34;;;;;;;1.63;1.30;;;6.00;98.20;;;;;;5110988;28;20532;-76
2021/01/20 02:02:01;;;;;;;1.63;1.30;;;6.00;98.20;;;;;;5106657;28;20453;-76
2021/01/20 02:04:27;;;;;;;1.60;1.30;;;6.00;98.20;;;;;;5110930;28;20445;-76
2021/01/20 02:06:55;;;;;;;1.67;1.40;;;6.10;98.20;;;;;;5113496;28;20444;-76
2021/01/20 02:09:23;;;;;;;2.43;2.23;;;6.10;98.20;;;;;;5112677;28;20473;-76
2021/01/20 02:12:15;;;;;;;1.70;1.40;;;6.20;98.20;;;;;;5109373;28;20459;-76
2021/01/20 02:14:51;;;;;;;14.40;12.80;;;6.20;98.20;;;;;;5111287;28;20460;-76
2021/01/20 02:17:24;;;;;;;1.60;1.20;;;6.20;98.20;;;;;;5113229;28;20484;-76
2021/01/20 02:20:20;;;;;;;1.60;1.30;;;6.20;98.20;;;;;;5113164;28;20492;-76
2021/01/20 02:22:51;;;;;;;1.70;1.43;;;6.20;98.20;;;;;;5108528;28;20541;-76
2021/01/20 02:25:36;;;;;;;1.60;1.30;;;6.20;98.20;;;;;;5112439;28;20473;-76
2021/01/20 02:28:11;;;;;;;1.70;1.50;;;6.20;98.20;;;;;;5109129;28;20441;-76
2021/01/20 02:30:41;;;;;;;1.60;1.30;;;6.30;98.20;;;;;;5109750;28;20487;-76
2021/01/20 02:33:10;;;;;;;1.60;1.30;;;6.30;98.20;;;;;;5105814;28;20445;-76
2021/01/20 02:35:38;;;;;;;1.60;1.27;;;6.30;98.20;;;;;;5112902;28;20959;-75
2021/01/20 02:38:05;;;;;;;1.60;1.30;;;6.30;98.20;;;;;;5113124;28;20468;-76
2021/01/20 02:40:32;;;;;;;1.60;1.30;;;6.30;98.20;;;;;;5107781;28;20498;-76
2021/01/20 02:42:58;;;;;;;1.60;1.30;;;6.30;98.20;;;;;;5087558;28;20461;-76
2021/01/20 02:45:25;;;;;;;1.60;1.30;;;6.40;98.20;;;;;;5101180;28;20452;-77
2021/01/20 02:47:53;;;;;;;1.70;1.40;;;6.40;98.20;;;;;;5105141;28;20463;-76
2021/01/20 02:50:20;;;;;;;1.60;1.30;;;6.40;98.20;;;;;;5109688;28;20706;-75
2021/01/20 02:53:01;;;;;;;1.70;1.30;;;6.40;98.20;;;;;;5105951;28;20453;-76
2021/01/20 02:55:30;;;;;;;1.67;1.30;;;6.40;98.20;;;;;;5110149;28;20448;-76
2021/01/20 02:58:00;;;;;;;1.60;1.40;;;6.40;98.20;;;;;;5114882;28;20476;-75
2021/01/20 03:00:27;;;;;;;1.60;1.30;;;6.50;98.20;;;;;;5108827;28;20460;-75
2021/01/20 03:02:56;;;;;;;1.70;1.40;;;6.50;98.20;;;;;;5109752;28;20452;-76
2021/01/20 03:05:24;;;;;;;1.60;1.30;;;6.60;98.20;;;;;;5110681;28;20460;-76
2021/01/20 03:07:50;;;;;;;1.60;1.30;;;6.70;98.20;;;;;;5111692;28;20453;-76
2021/01/20 03:10:19;;;;;;;1.60;1.20;;;6.70;98.20;;;;;;5114993;28;20686;-75
2021/01/20 03:12:45;;;;;;;2.70;2.50;;;6.80;98.20;;;;;;5111803;28;20465;-75
2021/01/20 03:15:18;;;;;;;1.60;1.30;;;6.80;98.20;;;;;;5111129;28;20449;-76
2021/01/20 03:17:45;;;;;;;1.63;1.30;;;6.90;98.20;;;;;;5112870;28;20487;-76
2021/01/20 03:20:13;;;;;;;1.63;1.30;;;6.90;98.20;;;;;;5115410;28;20498;-76
2021/01/20 03:22:39;;;;;;;1.60;1.20;;;7.00;98.20;;;;;;5111553;28;20500;-76
2021/01/20 03:25:06;;;;;;;1.70;1.40;;;7.00;98.20;;;;;;5108641;28;20605;-76
2021/01/20 03:27:33;;;;;;;1.67;1.30;;;7.00;98.20;;;;;;5112065;28;20456;-76
2021/01/20 03:29:59;;;;;;;1.60;1.30;;;7.10;98.20;;;;;;5111857;28;20487;-76
2021/01/20 03:32:26;;;;;;;1.60;1.27;;;7.10;98.20;;;;;;5108326;28;20487;-76
2021/01/20 03:34:52;;;;;;;1.67;1.20;;;7.10;98.20;;;;;;5108979;28;20453;-76
2021/01/20 03:37:19;;;;;;;1.70;1.30;;;7.10;98.20;;;;;;5111068;28;20650;-75
2021/01/20 03:39:46;;;;;;;1.67;1.30;;;7.10;98.20;;;;;;5103605;28;20862;-76
2021/01/20 03:42:12;;;;;;;21.87;4.13;;;7.10;98.20;;;;;;5109832;28;20459;-76
2021/01/20 03:44:38;;;;;;;1.63;1.33;;;7.10;98.20;;;;;;5109720;28;20457;-76
2021/01/20 03:47:05;;;;;;;1.70;1.40;;;7.10;98.20;;;;;;5112043;28;20471;-76
2021/01/20 03:49:31;;;;;;;1.67;1.40;;;7.10;98.20;;;;;;5110334;28;20447;-76
2021/01/20 03:51:58;;;;;;;1.60;1.27;;;7.00;98.20;;;;;;5106337;28;20457;-76
2021/01/20 03:54:25;;;;;;;1.60;1.30;;;6.90;98.20;;;;;;5108693;28;20463;-76
2021/01/20 03:56:51;;;;;;;1.60;1.30;;;6.80;98.20;;;;;;5112010;28;20429;-76
2021/01/20 03:59:18;;;;;;;1.60;1.30;;;6.70;98.20;;;;;;5100459;28;20501;-76
2021/01/20 04:01:44;;;;;;;1.60;1.40;;;6.70;98.20;;;;;;5108394;28;20453;-76
2021/01/20 04:04:11;;;;;;;1.60;1.30;;;6.60;98.20;;;;;;5110111;28;20448;-76
2021/01/20 04:06:37;;;;;;;1.60;1.20;;;6.60;98.20;;;;;;5110742;28;20464;-76
2021/01/20 04:09:05;;;;;;;1.63;1.30;;;6.50;98.20;;;;;;5108422;28;20480;-76
2021/01/20 04:11:33;;;;;;;1.60;1.30;;;6.50;98.20;;;;;;5110327;28;20532;-75
2021/01/20 04:14:00;;;;;;;1.60;1.40;;;6.50;98.20;;;;;;5108628;28;20925;-76
2021/01/20 04:16:26;;;;;;;1.63;1.30;;;6.40;98.20;;;;;;5110848;28;20457;-76
2021/01/20 04:18:53;;;;;;;1.60;1.30;;;6.40;98.20;;;;;;5108988;28;21042;-76
2021/01/20 04:21:19;;;;;;;1.60;1.30;;;6.40;98.20;;;;;;5109841;28;20456;-76
2021/01/20 04:23:46;;;;;;;1.63;1.30;;;6.50;98.20;;;;;;5106851;28;20448;-76
2021/01/20 04:26:12;;;;;;;1.63;1.30;;;6.50;98.20;;;;;;5109803;28;20444;-75
2021/01/20 04:28:39;;;;;;;1.60;1.20;;;6.60;98.20;;;;;;5108402;28;20446;-76
2021/01/20 04:31:06;;;;;;;1.60;1.30;;;6.70;98.20;;;;;;5110267;28;20456;-76
2021/01/20 04:33:33;;;;;;;1.60;1.30;;;6.70;98.20;;;;;;5105204;28;20461;-76
2021/01/20 04:36:00;;;;;;;1.60;1.30;;;6.80;98.20;;;;;;5110037;28;20456;-75
2021/01/20 04:38:26;;;;;;;1.60;1.27;;;6.90;98.20;;;;;;5107733;28;20506;-76
2021/01/20 04:40:53;;;;;;;1.60;1.20;;;6.90;98.20;;;;;;5106634;28;20467;-76
2021/01/20 04:43:19;;;;;;;1.67;1.30;;;7.00;98.20;;;;;;5105827;28;20479;-76
2021/01/20 04:45:48;;;;;;;1.60;1.30;;;7.10;98.20;;;;;;5108455;28;20460;-75
2021/01/20 04:48:16;;;;;;;1.60;1.20;;;7.10;98.20;;;;;;5108219;28;20498;-76
2021/01/20 04:50:43;;;;;;;1.60;1.30;;;7.20;98.20;;;;;;5112173;28;20472;-76
2021/01/20 04:53:10;;;;;;;1.60;1.20;;;7.20;98.20;;;;;;5109795;28;20445;-76
2021/01/20 04:55:39;;;;;;;1.60;1.30;;;7.20;98.20;;;;;;5109513;28;20453;-76
2021/01/20 04:58:05;;;;;;;1.63;1.30;;;7.20;98.20;;;;;;5106439;28;20473;-76
2021/01/20 05:00:32;;;;;;;1.63;1.27;;;7.20;98.20;;;;;;5109170;28;20472;-76
2021/01/20 05:03:01;;;;;;;1.63;1.30;;;7.20;98.00;;;;;;5110559;28;20467;-76
2021/01/20 05:05:27;;;;;;;1.70;1.30;;;7.20;97.70;;;;;;5113400;28;20456;-76
2021/01/20 05:07:54;;;;;;;1.60;1.20;;;7.30;97.80;;;;;;5109846;28;20662;-76
2021/01/20 05:10:20;;;;;;;1.60;1.30;;;7.20;98.00;;;;;;5111832;28;20479;-75
2021/01/20 05:16:24;;;;;;;1.60;1.20;;;7.20;98.20;;;;;;5091234;28;20474;-77
2021/01/20 05:18:51;;;;;;;1.63;1.30;;;7.20;98.20;;;;;;5092146;28;20542;-76
2021/01/20 05:21:18;;;;;;;1.67;1.30;;;7.20;98.00;;;;;;5095346;28;20490;-76
2021/01/20 05:23:45;;;;;;;1.60;1.20;;;7.20;97.70;;;;;;5098514;28;20878;-77
2021/01/20 05:26:11;;;;;;;1.63;1.20;;;7.20;97.40;;;;;;5099832;28;20471;-76
2021/01/20 05:28:38;;;;;;;1.60;1.20;;;7.30;97.60;;;;;;5085150;28;20468;-75
2021/01/20 05:31:05;;;;;;;1.63;1.30;;;7.30;96.80;;;;;;5096797;28;20457;-76
2021/01/20 05:33:36;;;;;;;1.60;1.30;;;7.30;96.60;;;;;;5094850;28;20469;-76
2021/01/20 05:36:07;;;;;;;1.60;1.23;;;7.30;96.10;;;;;;5097890;28;20456;-75
2021/01/20 05:38:38;;;;;;;1.63;1.40;;;7.30;96.20;;;;;;5094342;28;20512;-76
2021/01/20 05:41:18;;;;;;;1.60;1.30;;;7.30;96.30;;;;;;5087768;28;20461;-75
2021/01/20 05:43:45;;;;;;;1.63;1.30;;;7.30;96.10;;;;;;5098560;28;20491;-76
2021/01/20 05:46:11;;;;;;;1.70;1.37;;;7.30;96.30;;;;;;5100005;28;20928;-75
2021/01/20 05:48:48;;;;;;;1.60;1.20;;;7.30;96.40;;;;;;5104029;28;20536;-77
2021/01/20 05:51:16;;;;;;;1.60;1.17;;;7.30;96.50;;;;;;5100849;28;20863;-76
2021/01/20 05:53:50;;;;;;;1.60;1.10;;;7.30;96.30;;;;;;5095299;28;20837;-75
2021/01/20 05:56:16;;;;;;;1.60;1.20;;;7.30;96.30;;;;;;5096022;28;20503;-76
2021/01/20 05:58:43;;;;;;;1.60;1.30;;;7.30;96.30;;;;;;5101025;28;20520;-76
2021/01/20 06:01:11;;;;;;;1.67;1.37;;;7.30;96.40;;;;;;5094507;28;20846;-76
2021/01/20 06:03:38;;;;;;;1.70;1.40;;;7.30;96.40;;;;;;5096079;28;20507;-74
2021/01/20 06:06:06;;;;;;;1.63;1.30;;;7.30;96.10;;;;;;5099978;28;20453;-76
2021/01/20 06:08:35;;;;;;;1.60;1.20;;;7.30;96.50;;;;;;5098853;28;20511;-76
2021/01/20 06:11:03;;;;;;;1.70;1.40;;;7.30;96.40;;;;;;5086356;28;20509;-76
2021/01/20 06:13:29;;;;;;;1.60;1.20;;;7.30;96.50;;;;;;5092355;28;20610;-75
2021/01/20 06:16:00;;;;;;;1.60;1.30;;;7.30;96.50;;;;;;5099635;28;20463;-76
2021/01/20 06:18:32;;;;;;;1.60;1.20;;;7.30;96.40;;;;;;5097205;28;20500;-76
2021/01/20 06:20:58;;;;;;;1.70;1.40;;;7.30;96.40;;;;;;5096010;28;20479;-76
2021/01/20 06:23:26;;;;;;;1.70;1.30;;;7.30;96.70;;;;;;5098886;28;20487;-76
2021/01/20 06:26:00;;;;;;;1.60;1.30;;;7.30;96.80;;;;;;5095760;28;21030;-75
2021/01/20 06:28:27;;;;;;;1.60;1.30;;;7.30;97.10;;;;;;5095219;28;20464;-76
2021/01/20 06:30:55;;;;;;;1.60;1.20;;;7.30;97.20;;;;;;5101723;28;20892;-76
2021/01/20 06:33:23;;;;;;;1.60;1.30;;;7.30;97.20;;;;;;5101698;28;20482;-76
2021/01/20 06:35:51;;;;;;;1.63;1.30;;;7.30;97.50;;;;;;5097723;28;20670;-75
2021/01/20 06:38:38;;;;;;;1.63;1.20;;;7.30;97.40;;;;;;5088792;28;20496;-76
2021/01/20 06:41:09;;;;;;;1.60;1.20;;;7.30;97.50;;;;;;5098904;28;20453;-76
2021/01/20 06:43:44;;;;;;;1.70;1.30;;;7.30;97.40;;;;;;5099198;28;20998;-76
2021/01/20 06:46:15;;;;;;;1.60;1.30;;;7.20;97.30;;;;;;5099055;28;20461;-76
2021/01/20 06:49:10;;;;;;;1.67;1.30;;;7.20;97.10;;;;;;5101531;28;20552;-76
2021/01/20 06:51:37;;;;;;;1.60;1.20;;;7.20;97.50;;;;;;5103052;28;20618;-76
2021/01/20 06:54:10;;;;;;;1.60;1.20;;;7.20;97.40;;;;;;5093295;28;20472;-76
2021/01/20 06:56:39;;;;;;;1.63;1.23;;;7.20;97.20;;;;;;5097358;28;20452;-76
2021/01/20 06:59:16;;;;;;;1.60;1.20;;;7.20;97.00;;;;;;5099954;28;20484;-76
2021/01/20 07:02:03;;;;;;;1.60;1.30;;;7.30;97.00;;;;;;5091376;28;20495;-76
2021/01/20 07:05:03;;;;;;;1.60;1.30;;;7.30;97.10;;;;;;5098689;28;20468;-76
2021/01/20 07:07:52;;;;;;;1.60;1.20;;;7.30;97.60;;;;;;5094733;28;20498;-74
2021/01/20 07:10:19;;;;;;;1.60;1.20;;;7.20;97.20;;;;;;5083180;28;20508;-74
2021/01/20 07:13:17;;;;;;;1.60;1.20;;;7.20;97.10;;;;;;5093308;28;20488;-75
2021/01/20 07:15:49;;;;;;;1.60;1.20;;;7.20;96.90;;;;;;5092259;28;20456;-76
2021/01/20 07:18:17;;;;;;;1.60;1.20;;;7.30;97.20;;;;;;5094591;28;20516;-76
2021/01/20 07:20:45;;;;;;;1.60;1.20;;;7.30;97.00;;;;;;5096970;28;21044;-75
2021/01/20 07:23:11;;;;;;;1.60;1.20;;;7.30;96.60;;;;;;5095243;28;20472;-75
2021/01/20 07:25:38;;;;;;;1.60;1.20;;;7.30;96.30;;;;;;5097929;28;20460;-75
2021/01/20 07:28:05;;;;;;;1.60;1.20;;;7.40;96.60;;;;;;5093840;28;20456;-75
2021/01/20 07:30:33;;;;;;;1.60;1.20;;;7.40;95.90;;;;;;5097993;28;20519;-75
2021/01/20 07:33:00;;;;;;;1.60;1.20;;;7.50;95.50;;;;;;5084267;28;20459;-75
2021/01/20 07:35:28;;;;;;;1.67;1.30;;;7.50;95.50;;;;;;5091452;28;20452;-76
2021/01/20 07:38:03;;;;;;;1.60;1.20;;;7.60;95.10;;;;;;5092315;28;21216;-75
2021/01/20 07:40:30;;;;;;;1.60;1.20;;;7.60;95.20;;;;;;5092369;28;20511;-76
2021/01/20 07:42:57;;;;;;;1.60;1.20;;;7.60;94.70;;;;;;5091319;28;20483;-75
2021/01/20 07:45:38;;;;;;;1.60;1.30;;;7.60;94.80;;;;;;5098823;28;20468;-77
2021/01/20 07:48:06;;;;;;;1.60;1.20;;;7.60;94.90;;;;;;5093669;28;20479;-76
2021/01/20 07:50:40;;;;;;;1.60;1.20;;;7.60;94.60;;;;;;5100003;28;20498;-76
2021/01/20 07:53:11;;;;;;;1.60;1.20;;;7.60;94.90;;;;;;5094157;28;20492;-75
2021/01/20 07:55:39;;;;;;;1.60;1.20;;;7.60;94.60;;;;;;5092255;28;20469;-77
2021/01/20 07:58:06;;;;;;;1.60;1.30;;;7.60;94.90;;;;;;5089435;28;20541;-76
2021/01/20 08:00:43;;;;;;;1.60;1.20;;;7.60;94.90;;;;;;5094533;28;20480;-75
2021/01/20 08:03:10;;;;;;;1.60;1.30;;;7.60;94.80;;;;;;5091866;28;20452;-76
2021/01/20 08:05:37;;;;;;;1.60;1.30;;;7.60;95.00;;;;;;5093521;28;20557;-76
2021/01/20 08:08:11;;;;;;;1.63;1.27;;;7.60;94.90;;;;;;5090061;28;20548;-75
2021/01/20 08:10:39;;;;;;;1.60;1.30;;;7.60;95.10;;;;;;5093678;28;21679;-75
2021/01/20 08:13:08;;;;;;;1.60;1.20;;;7.60;95.10;;;;;;5086366;28;20555;-75
2021/01/20 08:15:40;;;;;;;1.60;1.30;;;7.60;94.90;;;;;;5089465;28;20464;-75
2021/01/20 08:18:09;;;;;;;1.60;1.10;;;7.70;95.20;;;;;;5091793;28;20548;-75
2021/01/20 08:20:38;;;;;;;1.60;1.20;;;7.60;95.10;;;;;;5096526;28;20594;-75
2021/01/20 08:23:11;;;;;;;1.60;1.20;;;7.70;95.20;;;;;;5095417;28;20465;-76
2021/01/20 08:25:38;;;;;;;1.60;1.10;;;7.70;95.20;;;;;;5104149;28;20716;-76
2021/01/20 08:28:15;;;;;;;1.60;1.20;;;7.70;95.20;;;;;;5101744;28;20456;-76
2021/01/20 08:30:42;;;;;;;1.60;1.20;;;7.70;94.80;;;;;;5108315;28;21027;-75
2021/01/20 08:33:09;;;;;;;1.60;1.30;;;7.70;94.70;;;;;;5103242;28;20472;-74
2021/01/20 08:35:37;;;;;;;1.60;1.30;;;7.70;95.10;;;;;;5102614;28;20461;-75
2021/01/20 08:38:04;;;;;;;1.60;1.20;;;7.70;94.80;;;;;;5098257;28;20480;-78
2021/01/20 08:40:31;;;;;;;1.60;1.20;;;7.80;94.50;;;;;;5106080;28;20477;-75
2021/01/20 08:42:58;;;;;;;1.60;1.20;;;7.80;94.50;;;;;;5101594;28;20487;-75
2021/01/20 08:45:32;;;;;;;1.60;1.27;;;7.90;94.30;;;;;;5095781;28;20457;-75
2021/01/20 08:48:01;;;;;;;1.60;1.20;;;7.90;94.20;;;;;;5099014;28;20550;-74
2021/01/20 08:50:41;;;;;;;1.63;1.30;;;7.90;93.20;;;;;;5099790;28;20891;-75
2021/01/20 08:53:09;;;;;;;1.67;1.30;;;7.90;93.40;;;;;;5101007;28;20469;-74
2021/01/20 08:55:38;;;;;;;1.60;1.20;;;8.00;93.10;;;;;;5095118;28;20460;-75
2021/01/20 08:58:32;;;;;;;1.60;1.20;;;8.00;92.60;;;;;;5098038;28;20545;-75
2021/01/20 09:01:00;;;;;;;1.63;1.40;;;8.10;92.50;;;;;;5064823;28;20492;-73
2021/01/20 09:03:28;;;;;;;1.63;1.30;;;8.10;92.10;;;;;;5090030;28;20464;-73
2021/01/20 09:05:56;;;;;;;1.60;1.20;;;8.20;91.70;;;;;;5102065;28;20471;-74
2021/01/20 09:08:25;;;;;;;1.60;1.10;;;8.20;91.90;;;;;;5099705;28;20801;-75
2021/01/20 09:10:52;;;;;;;1.60;1.10;;;8.30;91.60;;;;;;5098282;28;20456;-75
2021/01/20 09:13:19;;;;;;;1.60;1.20;;;8.30;91.10;;;;;;5099685;28;20579;-75
2021/01/20 09:15:46;;;;;;;1.60;1.20;;;8.30;91.70;;;;;;5099707;28;20453;-72
2021/01/20 09:18:13;;;;;;;1.60;1.17;;;8.40;90.70;;;;;;5097860;28;20562;-74
2021/01/20 09:20:40;;;;;;;1.60;1.20;;;8.40;90.50;;;;;;5101140;28;20476;-75
2021/01/20 09:23:08;;;;;;;1.60;1.10;;;8.40;90.80;;;;;;5099528;28;20471;-75
2021/01/20 09:25:35;;;;;;;1.60;1.10;;;8.40;90.60;;;;;;5095457;28;20464;-75
2021/01/20 09:28:03;;;;;;;1.60;1.20;;;8.40;90.60;;;;;;5097547;28;20827;-75
2021/01/20 09:30:30;;;;;;;1.60;1.20;;;8.50;89.90;;;;;;5099480;28;20472;-74
2021/01/20 09:32:56;;;;;;;1.60;1.20;;;8.50;89.60;;;;;;5095284;28;20472;-74
2021/01/20 09:35:23;;;;;;;1.60;1.20;;;8.50;89.60;;;;;;5100168;28;20460;-75
2021/01/20 09:37:50;;;;;;;2.20;2.00;;;8.40;89.90;;;;;;5088819;28;20485;-73
2021/01/20 09:40:18;;;;;;;1.60;1.20;;;8.40;89.30;;;;;;5097630;28;20477;-74
2021/01/20 09:42:47;;;;;;;1.60;1.10;;;8.40;89.70;;;;;;5099595;28;20456;-74
2021/01/20 09:45:14;;;;;;;2.73;2.53;;;8.40;88.80;;;;;;5098504;28;20460;-74
2021/01/20 09:47:43;;;;;;;1.60;1.20;;;8.40;88.80;;;;;;5096128;28;20609;-72
2021/01/20 09:50:12;;;;;;;1.60;1.20;;;8.50;88.90;;;;;;5104209;28;20479;-72
2021/01/20 09:52:38;;;;;;;1.60;1.27;;;8.50;88.70;;;;;;5104913;28;20492;-74
2021/01/20 09:55:06;;;;;;;1.60;1.20;;;8.50;88.90;;;;;;5096679;28;20491;-74
2021/01/20 09:57:34;;;;;;;1.60;1.23;;;8.50;88.80;;;;;;5096076;28;20667;-73
2021/01/20 10:00:01;;;;;;;1.63;1.20;;;8.50;87.80;;;;;;5093013;28;20484;-73
2021/01/20 10:02:28;;;;;;;1.60;1.30;;;8.50;88.50;;;;;;5098610;28;20461;-73
2021/01/20 10:04:54;;;;;;;1.60;1.20;;;8.60;87.90;;;;;;5094958;28;20465;-74
2021/01/20 10:07:22;;;;;;;1.60;1.20;;;8.60;87.80;;;;;;5095072;28;20460;-75
2021/01/20 10:09:48;;;;;;;1.60;1.20;;;8.60;87.50;;;;;;5099166;28;20480;-74
2021/01/20 10:12:15;;;;;;;1.60;1.30;;;8.70;87.40;;;;;;5105237;28;20475;-74
2021/01/20 10:14:42;;;;;;;1.70;1.30;;;8.70;88.10;;;;;;5095895;28;20467;-74
2021/01/20 10:17:09;;;;;;;1.60;1.20;;;8.70;88.20;;;;;;5092000;28;20610;-74
2021/01/20 10:19:36;;;;;;;1.60;1.30;;;8.80;87.80;;;;;;5099908;28;20500;-74
2021/01/20 10:22:02;;;;;;;1.60;1.13;;;8.80;87.60;;;;;;5094884;28;20473;-74
2021/01/20 10:24:29;;;;;;;1.60;1.10;;;8.80;87.50;;;;;;5101951;28;20691;-75
2021/01/20 10:26:56;;;;;;;1.60;1.10;;;8.80;87.60;;;;;;5099742;28;20495;-74
2021/01/20 10:29:24;;;;;;;1.60;1.20;;;8.80;87.20;;;;;;5098405;28;20472;-73
2021/01/20 10:31:51;;;;;;;1.60;1.20;;;8.80;86.60;;;;;;5089434;28;20457;-74
2021/01/20 10:34:18;;;;;;;1.60;1.20;;;8.80;87.40;;;;;;5095414;28;20480;-75
2021/01/20 10:36:45;;;;;;;1.60;1.20;;;8.80;87.60;;;;;;5095966;28;21005;-73
2021/01/20 10:39:12;;;;;;;1.67;1.20;;;8.80;87.90;;;;;;5094870;28;21019;-74
2021/01/20 10:41:38;;;;;;;1.60;1.20;;;8.80;87.90;;;;;;5097907;28;21120;-75
2021/01/20 10:44:06;;;;;;;1.63;1.30;;;8.90;87.60;;;;;;5099452;28;20844;-73
2021/01/20 10:46:33;;;;;;;2.00;1.20;;;8.80;87.40;;;;;;5102741;28;20460;-75
2021/01/20 10:49:02;;;;;;;1.60;1.10;;;8.80;87.60;;;;;;5099301;28;20502;-73
2021/01/20 10:51:33;;;;;;;1.60;1.20;;;8.80;87.80;;;;;;5101365;28;20461;-74
2021/01/20 10:54:00;;;;;;;1.60;1.10;;;8.90;87.40;;;;;;5096962;28;20457;-74
2021/01/20 10:56:27;;;;;;;1.60;1.27;;;8.90;86.90;;;;;;5093965;28;20466;-73
2021/01/20 10:58:53;;;;;;;1.60;1.20;;;9.00;86.90;;;;;;5094129;28;20489;-73
2021/01/20 11:01:20;;;;;;;1.60;1.17;;;9.10;86.70;;;;;;5096596;28;20735;-73
2021/01/20 11:03:47;;;;;;;1.60;1.20;;;9.10;86.60;;;;;;5091229;28;20472;-74
2021/01/20 11:06:14;;;;;;;1.60;1.20;;;9.20;86.30;;;;;;5095058;28;20481;-73
2021/01/20 11:08:41;;;;;;;1.60;1.20;;;9.20;86.50;;;;;;5097805;28;21382;-74
2021/01/20 11:11:07;;;;;;;1.60;1.20;;;9.20;85.70;;;;;;5090416;28;20477;-73
2021/01/20 11:13:34;;;;;;;1.60;1.10;;;9.30;85.40;;;;;;5094272;28;20467;-74
2021/01/20 11:16:02;;;;;;;1.60;1.20;;;9.30;85.50;;;;;;5094107;28;20497;-75
2021/01/20 11:18:32;;;;;;;1.60;1.20;;;9.30;85.70;;;;;;5107113;28;20480;-75
2021/01/20 11:20:59;;;;;;;2.73;2.13;;;9.30;85.80;;;;;;5109062;28;20453;-75
2021/01/20 11:23:27;;;;;;;1.60;1.20;;;9.40;85.70;;;;;;5099149;28;20467;-75
2021/01/20 11:25:55;;;;;;;1.60;1.20;;;9.40;85.80;;;;;;5103377;28;20456;-75
2021/01/20 11:28:23;;;;;;;1.60;1.10;;;9.40;85.50;;;;;;5102041;28;20460;-75
2021/01/20 11:30:50;;;;;;;1.60;1.10;;;9.50;85.30;;;;;;5097787;28;20510;-75
2021/01/20 11:33:17;;;;;;;1.60;1.30;;;9.50;85.70;;;;;;5099944;28;20464;-75
2021/01/20 11:35:43;;;;;;;1.60;1.17;;;9.50;85.40;;;;;;5104873;28;20461;-75
2021/01/20 11:38:10;;;;;;;1.60;1.13;;;9.60;85.70;;;;;;5106316;28;21066;-74
2021/01/20 11:40:37;;;;;;;1.60;1.20;;;9.60;86.20;;;;;;5106340;28;20480;-75
2021/01/20 11:43:05;;;;;;;1.60;1.13;;;9.60;85.50;;;;;;5101599;28;20456;-75
2021/01/20 11:45:34;;;;;;;1.60;1.20;;;9.60;85.40;;;;;;5105156;28;20456;-75
2021/01/20 11:48:01;;;;;;;1.60;1.10;;;9.60;85.40;;;;;;5099843;28;20472;-75
2021/01/20 11:50:28;;;;;;;1.60;1.10;;;9.50;85.50;;;;;;5101532;28;20480;-75
2021/01/20 11:52:55;;;;;;;1.60;1.10;;;9.50;85.80;;;;;;5103101;28;20469;-75
2021/01/20 11:55:23;;;;;;;1.60;1.10;;;9.50;85.20;;;;;;5106641;28;20444;-74
2021/01/20 11:57:51;;;;;;;1.60;1.20;;;9.50;85.00;;;;;;5103107;28;20487;-75
2021/01/20 12:00:19;;;;;;;1.60;1.10;;;9.50;85.10;;;;;;5104646;28;20487;-75
2021/01/20 12:02:48;;;;;;;1.60;1.10;;;9.50;85.40;;;;;;5103874;28;20456;-75
2021/01/20 12:05:18;;;;;;;1.60;1.10;;;9.50;84.40;;;;;;5105235;28;20458;-75
2021/01/20 12:07:46;;;;;;;1.60;1.10;;;9.60;84.60;;;;;;5101280;28;20491;-76
2021/01/20 12:10:15;;;;;;;1.60;1.10;;;9.60;83.90;;;;;;5097000;28;20477;-76
2021/01/20 12:12:41;;;;;;;1.60;1.13;;;9.70;84.30;;;;;;5103081;28;20479;-75
2021/01/20 12:15:10;;;;;;;2.00;1.83;;;9.70;84.10;;;;;;5100184;28;20496;-75
2021/01/20 12:17:37;;;;;;;1.60;1.30;;;9.80;84.20;;;;;;5099217;28;20474;-76
2021/01/20 12:20:05;;;;;;;1.60;1.30;;;9.80;83.30;;;;;;5103820;28;20468;-76
2021/01/20 12:22:32;;;;;;;1.60;1.10;;;9.90;84.20;;;;;;5104738;28;20444;-76
2021/01/20 12:24:58;;;;;;;1.60;1.10;;;9.90;84.20;;;;;;5105000;28;20468;-76
2021/01/20 12:27:24;;;;;;;1.60;1.20;;;9.80;84.20;;;;;;5100305;28;20465;-76
2021/01/20 12:29:51;;;;;;;1.60;1.13;;;9.70;84.20;;;;;;5098690;28;20492;-76
2021/01/20 12:32:18;;;;;;;1.60;1.10;;;9.60;84.70;;;;;;5103272;28;20480;-76
2021/01/20 12:34:45;;;;;;;1.60;1.20;;;9.50;84.60;;;;;;5101395;28;20464;-76
2021/01/20 12:37:11;;;;;;;1.77;1.50;;;9.40;85.00;;;;;;5096189;28;20449;-77
2021/01/20 12:39:38;;;;;;;1.60;1.10;;;9.40;85.40;;;;;;5103028;28;20496;-76
2021/01/20 12:42:05;;;;;;;2.47;2.27;;;9.40;85.60;;;;;;5104500;28;20572;-77
2021/01/20 12:44:31;;;;;;;1.60;1.10;;;9.30;85.90;;;;;;5101469;28;20468;-75
2021/01/20 12:46:58;;;;;;;1.60;1.20;;;9.30;85.90;;;;;;5092171;28;20460;-75
2021/01/20 12:49:25;;;;;;;1.60;1.20;;;9.30;86.10;;;;;;5096601;28;20507;-75
2021/01/20 12:51:52;;;;;;;1.60;1.10;;;9.30;85.90;;;;;;5097423;28;20467;-75
2021/01/20 12:54:18;;;;;;;1.60;1.20;;;9.30;86.50;;;;;;5096389;28;20445;-75
2021/01/20 12:56:44;;;;;;;1.60;1.20;;;9.30;86.50;;;;;;5099029;28;20453;-75
2021/01/20 12:59:12;;;;;;;1.53;1.10;;;9.30;86.50;;;;;;5105306;28;20488;-76
2021/01/20 13:01:38;;;;;;;3.13;2.93;;;9.40;86.40;;;;;;5098720;28;20499;-76
2021/01/20 13:04:05;;;;;;;1.60;1.20;;;9.40;86.30;;;;;;5100503;28;20444;-76
2021/01/20 13:06:32;;;;;;;1.60;1.20;;;9.40;86.50;;;;;;5100179;28;20502;-75
2021/01/20 13:08:59;;;;;;;1.60;1.10;;;9.40;86.40;;;;;;5098884;28;20483;-75